createdAt,value
2022-11-12T00:01:14.544Z,10.95
2022-11-12T00:03:41.797Z,10.91
2022-11-12T00:06:08.669Z,10.85
2022-11-12T00:08:37.155Z,10.80
2022-11-12T00:11:05.333Z,10.84
2022-11-12T00:13:31.925Z,10.81
2022-11-12T00:15:58.719Z,10.83
2022-11-12T00:18:25.807Z,10.73
2022-11-12T00:20:52.713Z,10.84
2022-11-12T00:23:19.270Z,10.82
2022-11-12T00:25:57.542Z,10.81
2022-11-12T00:28:26.038Z,10.85
2022-11-12T00:30:52.907Z,10.74
2022-11-12T00:33:19.715Z,10.81
2022-11-12T00:35:46.492Z,10.79
2022-11-12T00:38:18.009Z,10.76
2022-11-12T00:40:45.240Z,10.81
2022-11-12T00:43:11.898Z,10.76
2022-11-12T00:45:40.377Z,10.73
2022-11-12T00:48:06.920Z,10.64
2022-11-12T00:50:34.621Z,10.74
2022-11-12T00:53:01.970Z,10.69
2022-11-12T00:55:29.389Z,10.68
2022-11-12T00:57:58.702Z,10.77
2022-11-12T01:00:26.099Z,10.68
2022-11-12T01:02:55.632Z,10.76
2022-11-12T01:05:22.261Z,10.69
2022-11-12T01:07:54.691Z,10.69
2022-11-12T01:10:23.959Z,10.60
2022-11-12T01:12:51.545Z,10.55
2022-11-12T01:15:18.239Z,10.52
2022-11-12T01:17:44.814Z,10.53
2022-11-12T01:20:13.223Z,10.58
2022-11-12T01:22:39.757Z,10.53
2022-11-12T01:25:07.081Z,10.50
2022-11-12T01:27:33.915Z,10.52
2022-11-12T01:30:00.823Z,10.48
2022-11-12T01:32:27.770Z,10.50
2022-11-12T01:34:54.735Z,10.52
2022-11-12T01:37:23.086Z,10.50
2022-11-12T01:39:49.969Z,10.56
2022-11-12T01:42:16.775Z,10.51
2022-11-12T01:44:48.737Z,10.46
2022-11-12T01:47:21.866Z,10.45
2022-11-12T01:49:56.861Z,10.50
2022-11-12T01:52:32.154Z,10.55
2022-11-12T01:55:03.289Z,10.51
2022-11-12T01:57:37.249Z,10.58
2022-11-12T02:00:07.823Z,10.53
2022-11-12T02:02:36.826Z,10.55
2022-11-12T02:05:07.495Z,10.49
2022-11-12T02:07:39.367Z,10.51
2022-11-12T02:10:09.161Z,10.40
2022-11-12T02:12:36.648Z,10.43
2022-11-12T02:15:04.431Z,10.45
2022-11-12T02:17:33.827Z,10.46
2022-11-12T02:20:01.419Z,10.41
2022-11-12T02:22:29.555Z,10.42
2022-11-12T02:24:56.345Z,10.37
2022-11-12T02:27:24.372Z,10.34
2022-11-12T02:29:52.055Z,10.33
2022-11-12T02:32:18.814Z,10.32
2022-11-12T02:34:46.320Z,10.29
2022-11-12T02:37:12.864Z,10.26
2022-11-12T02:39:41.084Z,10.32
2022-11-12T02:42:07.726Z,10.25
2022-11-12T02:44:34.395Z,10.23
2022-11-12T02:47:00.934Z,10.16
2022-11-12T02:49:27.850Z,10.20
2022-11-12T02:51:54.680Z,10.12
2022-11-12T02:54:21.397Z,10.15
2022-11-12T02:56:49.426Z,10.16
2022-11-12T02:59:16.551Z,10.17
2022-11-12T03:01:43.156Z,10.12
2022-11-12T03:04:09.917Z,9.98
2022-11-12T03:06:36.546Z,9.83
2022-11-12T03:09:03.487Z,9.95
2022-11-12T03:11:33.026Z,9.89
2022-11-12T03:14:04.037Z,9.88
2022-11-12T03:16:30.734Z,9.90
2022-11-12T03:18:57.321Z,9.89
2022-11-12T03:21:23.884Z,9.87
2022-11-12T03:23:50.562Z,9.98
2022-11-12T03:26:17.707Z,9.90
2022-11-12T03:28:46.053Z,9.91
2022-11-12T03:31:14.019Z,9.90
2022-11-12T03:33:40.655Z,9.96
2022-11-12T03:36:08.609Z,9.93
2022-11-12T03:38:35.172Z,9.87
2022-11-12T03:41:02.058Z,9.89
2022-11-12T03:43:28.821Z,9.91
2022-11-12T03:45:55.810Z,9.80
2022-11-12T03:48:27.135Z,9.86
2022-11-12T03:50:58.014Z,9.80
2022-11-12T03:53:24.840Z,9.83
2022-11-12T03:55:51.462Z,9.86
2022-11-12T03:58:18.068Z,9.83
2022-11-12T04:00:44.913Z,9.78
2022-11-12T04:03:11.603Z,9.82
2022-11-12T04:05:39.948Z,9.86
2022-11-12T04:08:10.171Z,9.86
2022-11-12T04:10:36.735Z,9.83
2022-11-12T04:13:03.768Z,9.85
2022-11-12T04:15:30.328Z,9.82
2022-11-12T04:17:56.894Z,9.82
2022-11-12T04:20:23.455Z,9.82
2022-11-12T04:22:51.639Z,9.71
2022-11-12T04:25:18.287Z,9.69
2022-11-12T04:27:52.711Z,9.69
2022-11-12T04:30:19.404Z,9.55
2022-11-12T04:32:48.656Z,9.57
2022-11-12T04:35:15.775Z,9.58
2022-11-12T04:37:42.543Z,9.55
2022-11-12T04:40:13.813Z,9.56
2022-11-12T04:42:41.828Z,9.59
2022-11-12T04:45:09.809Z,9.57
2022-11-12T04:47:38.118Z,9.55
2022-11-12T04:50:08.744Z,9.56
2022-11-12T04:52:36.638Z,9.56
2022-11-12T04:55:07.329Z,9.59
2022-11-12T04:57:35.558Z,9.60
2022-11-12T05:00:02.566Z,9.53
2022-11-12T05:02:29.555Z,9.59
2022-11-12T05:04:56.419Z,9.56
2022-11-12T05:07:23.416Z,9.60
2022-11-12T05:09:50.415Z,9.59
2022-11-12T05:12:19.463Z,9.64
2022-11-12T05:14:47.446Z,9.70
2022-11-12T05:17:14.950Z,9.60
2022-11-12T05:19:41.532Z,9.57
2022-11-12T05:22:21.940Z,9.71
2022-11-12T05:24:57.229Z,9.69
2022-11-12T05:27:24.075Z,9.80
2022-11-12T05:29:52.290Z,9.74
2022-11-12T05:32:18.935Z,9.73
2022-11-12T05:34:46.109Z,9.72
2022-11-12T05:37:13.978Z,9.76
2022-11-12T05:39:41.066Z,9.76
2022-11-12T05:42:15.050Z,9.69
2022-11-12T05:44:43.749Z,9.71
2022-11-12T05:47:11.992Z,9.72
2022-11-12T05:49:38.533Z,9.77
2022-11-12T05:52:05.617Z,9.69
2022-11-12T05:54:32.284Z,9.69
2022-11-12T05:57:00.444Z,9.58
2022-11-12T05:59:27.073Z,9.54
2022-11-12T06:01:53.728Z,9.58
2022-11-12T06:04:22.291Z,9.57
2022-11-12T06:06:49.259Z,9.46
2022-11-12T06:09:17.866Z,9.40
2022-11-12T06:11:44.456Z,9.44
2022-11-12T06:14:12.752Z,9.47
2022-11-12T06:16:39.573Z,9.37
2022-11-12T06:19:06.807Z,9.29
2022-11-12T06:21:35.014Z,9.37
2022-11-12T06:24:01.736Z,9.41
2022-11-12T06:26:29.765Z,9.29
2022-11-12T06:28:59.278Z,9.33
2022-11-12T06:31:25.886Z,9.23
2022-11-12T06:33:53.000Z,9.14
2022-11-12T06:36:20.956Z,9.36
2022-11-12T06:38:50.377Z,9.41
2022-11-12T06:41:25.705Z,9.40
2022-11-12T06:43:52.606Z,9.42
2022-11-12T06:46:19.208Z,9.32
2022-11-12T06:48:45.785Z,9.24
2022-11-12T06:51:16.802Z,9.17
2022-11-12T06:53:43.759Z,9.19
2022-11-12T06:56:12.833Z,9.25
2022-11-12T06:58:40.071Z,9.38
2022-11-12T07:01:12.106Z,9.55
2022-11-12T07:03:41.068Z,9.53
2022-11-12T07:06:09.913Z,9.54
2022-11-12T07:08:37.473Z,9.44
2022-11-12T07:11:06.492Z,9.50
2022-11-12T07:13:35.551Z,9.61
2022-11-12T07:16:04.000Z,9.62
2022-11-12T07:18:33.392Z,9.90
2022-11-12T07:21:01.133Z,10.13
2022-11-12T07:23:28.686Z,10.16
2022-11-12T07:25:57.169Z,10.48
2022-11-12T07:28:26.335Z,10.56
2022-11-12T07:31:32.277Z,10.76
2022-11-12T07:34:00.184Z,11.09
2022-11-12T07:36:27.537Z,11.21
2022-11-12T07:38:55.329Z,11.36
2022-11-12T07:41:24.083Z,11.62
2022-11-12T07:43:56.724Z,11.85
2022-11-12T07:46:25.660Z,12.16
2022-11-12T07:48:53.126Z,12.38
2022-11-12T07:51:23.442Z,12.56
2022-11-12T07:53:56.235Z,12.73
2022-11-12T07:56:26.544Z,12.78
2022-11-12T07:58:53.312Z,12.91
2022-11-12T08:01:25.937Z,12.90
2022-11-12T08:04:07.895Z,13.23
2022-11-12T08:06:37.294Z,13.47
2022-11-12T08:09:06.458Z,13.43
2022-11-12T08:11:36.314Z,13.72
2022-11-12T08:14:03.359Z,13.95
2022-11-12T08:16:30.855Z,14.09
2022-11-12T08:18:57.999Z,14.26
2022-11-12T08:21:25.079Z,14.40
2022-11-12T08:23:59.537Z,14.57
2022-11-12T08:26:26.957Z,14.76
2022-11-12T08:28:56.013Z,14.84
2022-11-12T08:31:23.159Z,15.02
2022-11-12T08:33:50.354Z,14.94
2022-11-12T08:36:17.742Z,14.98
2022-11-12T08:38:46.716Z,14.70
2022-11-12T08:41:16.134Z,14.95
2022-11-12T08:43:43.191Z,14.99
2022-11-12T08:46:10.003Z,15.05
2022-11-12T08:48:37.214Z,15.26
2022-11-12T08:51:05.410Z,15.16
2022-11-12T08:53:32.295Z,15.36
2022-11-12T08:55:59.619Z,15.36
2022-11-12T08:58:28.331Z,15.26
2022-11-12T09:00:56.277Z,15.31
2022-11-12T09:03:26.124Z,15.30
2022-11-12T09:05:53.882Z,15.25
2022-11-12T09:08:24.961Z,15.23
2022-11-12T09:10:53.516Z,15.29
2022-11-12T09:13:20.908Z,15.17
2022-11-12T09:15:51.416Z,15.05
2022-11-12T09:18:21.079Z,15.22
2022-11-12T09:20:48.117Z,15.35
2022-11-12T09:23:16.681Z,15.36
2022-11-12T09:25:44.136Z,15.35
2022-11-12T09:28:13.188Z,15.47
2022-11-12T09:30:44.231Z,15.31
2022-11-12T09:33:16.206Z,15.12
2022-11-12T09:35:43.202Z,15.22
2022-11-12T09:38:10.133Z,15.26
2022-11-12T09:40:54.997Z,15.31
2022-11-12T09:43:27.378Z,15.17
2022-11-12T09:46:13.899Z,15.14
2022-11-12T09:48:52.790Z,15.21
2022-11-12T09:51:26.133Z,15.51
2022-11-12T09:53:55.878Z,15.39
2022-11-12T09:56:25.082Z,15.20
2022-11-12T09:58:57.910Z,15.32
2022-11-12T10:01:39.413Z,15.56
2022-11-12T10:04:37.183Z,15.58
2022-11-12T10:07:13.086Z,15.39
2022-11-12T10:09:50.600Z,15.51
2022-11-12T10:12:24.752Z,15.17
2022-11-12T10:15:11.721Z,15.43
2022-11-12T10:17:49.376Z,15.28
2022-11-12T10:20:28.672Z,15.51
2022-11-12T10:23:17.943Z,15.58
2022-11-12T10:25:48.203Z,15.67
2022-11-12T10:28:24.719Z,15.73
2022-11-12T10:30:54.203Z,15.70
2022-11-12T10:33:20.771Z,15.89
2022-11-12T10:35:53.661Z,15.92
2022-11-12T10:38:27.432Z,15.98
2022-11-12T10:40:54.298Z,15.73
2022-11-12T10:43:23.189Z,16.04
2022-11-12T10:45:51.246Z,16.24
2022-11-12T10:48:27.502Z,16.35
2022-11-12T10:50:56.727Z,16.46
2022-11-12T10:53:34.124Z,16.59
2022-11-12T10:56:02.431Z,16.44
2022-11-12T10:58:30.512Z,16.64
2022-11-12T11:01:00.926Z,16.77
2022-11-12T11:03:29.879Z,16.81
2022-11-12T11:06:00.468Z,16.86
2022-11-12T11:08:36.566Z,16.97
2022-11-12T11:11:19.091Z,16.98
2022-11-12T11:13:50.215Z,16.88
2022-11-12T11:16:24.445Z,16.94
2022-11-12T11:18:54.769Z,16.87
2022-11-12T11:21:46.533Z,17.18
2022-11-12T11:24:36.218Z,17.32
2022-11-12T11:27:10.618Z,17.20
2022-11-12T11:30:01.097Z,17.48
2022-11-12T11:32:47.624Z,17.31
2022-11-12T11:35:24.728Z,17.49
2022-11-12T11:38:05.590Z,17.71
2022-11-12T11:40:38.067Z,17.67
2022-11-12T11:43:20.825Z,17.57
2022-11-12T11:46:13.394Z,17.65
2022-11-12T11:48:52.671Z,17.22
2022-11-12T11:51:35.923Z,17.57
2022-11-12T11:54:16.021Z,17.83
2022-11-12T11:56:45.327Z,17.75
2022-11-12T11:59:33.724Z,18.00
2022-11-12T12:02:41.808Z,17.99
2022-11-12T12:05:25.361Z,17.99
2022-11-12T12:07:59.208Z,17.99
2022-11-12T12:11:06.333Z,18.05
2022-11-12T12:13:37.258Z,17.94
2022-11-12T12:16:29.808Z,17.93
2022-11-12T12:19:04.710Z,17.80
2022-11-12T12:21:34.983Z,17.93
2022-11-12T12:24:06.136Z,17.92
2022-11-12T12:26:40.383Z,18.03
2022-11-12T12:29:13.561Z,18.12
2022-11-12T12:31:45.350Z,18.21
2022-11-12T12:34:22.922Z,18.01
2022-11-12T12:36:54.108Z,17.99
2022-11-12T12:39:25.973Z,18.27
2022-11-12T12:41:58.670Z,18.40
2022-11-12T12:44:29.944Z,18.59
2022-11-12T12:47:00.127Z,18.68
2022-11-12T12:49:30.713Z,18.57
2022-11-12T12:51:59.699Z,18.60
2022-11-12T12:54:55.004Z,18.45
2022-11-12T12:57:36.657Z,18.50
2022-11-12T13:00:26.162Z,18.67
2022-11-12T13:02:53.165Z,18.73
2022-11-12T13:05:25.939Z,18.57
2022-11-12T13:07:53.569Z,18.52
2022-11-12T13:10:53.596Z,18.63
2022-11-12T13:13:37.417Z,18.66
2022-11-12T13:16:04.324Z,18.76
2022-11-12T13:19:01.986Z,18.93
2022-11-12T13:21:29.924Z,18.78
2022-11-12T13:23:59.092Z,18.93
2022-11-12T13:26:45.542Z,18.79
2022-11-12T13:29:42.325Z,18.82
2022-11-12T13:32:53.827Z,18.86
2022-11-12T13:35:33.326Z,18.92
2022-11-12T13:38:03.560Z,18.80
2022-11-12T13:40:41.311Z,18.75
2022-11-12T13:43:16.937Z,18.76
2022-11-12T13:45:49.028Z,18.72
2022-11-12T13:48:26.063Z,18.58
2022-11-12T13:50:56.914Z,18.58
2022-11-12T13:53:29.635Z,18.49
2022-11-12T13:55:57.076Z,18.55
2022-11-12T13:58:29.184Z,18.59
2022-11-12T14:00:57.988Z,18.48
2022-11-12T14:03:31.481Z,18.49
2022-11-12T14:06:08.177Z,18.42
2022-11-12T14:09:01.968Z,18.52
2022-11-12T14:11:46.702Z,18.52
2022-11-12T14:14:29.240Z,18.32
2022-11-12T14:17:20.870Z,18.28
2022-11-12T14:20:07.407Z,18.29
2022-11-12T14:22:42.370Z,18.29
2022-11-12T14:25:17.280Z,18.23
2022-11-12T14:27:43.816Z,18.23
2022-11-12T14:30:13.281Z,18.12
2022-11-12T14:32:43.971Z,18.03
2022-11-12T14:35:25.805Z,17.98
2022-11-12T14:37:59.465Z,18.03
2022-11-12T14:40:30.448Z,17.98
2022-11-12T14:42:57.607Z,18.02
2022-11-12T14:45:30.021Z,17.91
2022-11-12T14:47:59.380Z,17.89
2022-11-12T14:50:34.521Z,17.90
2022-11-12T14:53:19.246Z,17.91
2022-11-12T14:55:51.671Z,17.87
2022-11-12T14:58:22.144Z,17.83
2022-11-12T15:00:51.165Z,17.67
2022-11-12T15:03:28.680Z,17.72
2022-11-12T15:06:07.519Z,17.67
2022-11-12T15:08:44.776Z,17.65
2022-11-12T15:11:22.374Z,17.60
2022-11-12T15:13:51.607Z,17.61
2022-11-12T15:16:24.539Z,17.49
2022-11-12T15:19:36.448Z,17.37
2022-11-12T15:22:04.132Z,17.33
2022-11-12T15:24:34.107Z,17.30
2022-11-12T15:27:22.542Z,17.29
2022-11-12T15:29:49.099Z,17.20
2022-11-12T15:32:34.202Z,17.06
2022-11-12T15:35:01.641Z,16.85
2022-11-12T15:37:35.133Z,16.77
2022-11-12T15:40:11.197Z,16.70
2022-11-12T15:42:39.683Z,16.69
2022-11-12T15:45:14.475Z,16.65
2022-11-12T15:47:47.349Z,16.47
2022-11-12T15:50:16.688Z,16.45
2022-11-12T15:52:44.032Z,16.48
2022-11-12T15:55:13.573Z,16.40
2022-11-12T15:57:44.060Z,16.37
2022-11-12T16:00:15.838Z,16.24
2022-11-12T16:02:43.369Z,16.15
2022-11-12T16:05:13.394Z,16.15
2022-11-12T16:07:41.194Z,16.13
2022-11-12T16:10:15.663Z,16.05
2022-11-12T16:12:43.256Z,15.89
2022-11-12T16:15:13.699Z,15.97
2022-11-12T16:17:40.408Z,15.95
2022-11-12T16:20:14.393Z,15.87
2022-11-12T16:22:44.325Z,15.91
2022-11-12T16:25:10.863Z,15.87
2022-11-12T16:27:42.064Z,15.91
2022-11-12T16:30:16.259Z,15.83
2022-11-12T16:32:43.543Z,15.86
2022-11-12T16:35:10.579Z,15.79
2022-11-12T16:37:38.846Z,15.71
2022-11-12T16:40:07.275Z,15.64
2022-11-12T16:42:34.269Z,15.69
2022-11-12T16:45:02.302Z,15.61
2022-11-12T16:47:29.085Z,15.48
2022-11-12T16:49:55.663Z,15.49
2022-11-12T16:52:25.355Z,15.36
2022-11-12T16:54:52.041Z,15.34
2022-11-12T17:18:19.117Z,14.97
2022-11-12T17:20:50.923Z,14.97
2022-11-12T17:23:18.290Z,14.99
2022-11-12T17:25:44.872Z,15.00
2022-11-12T17:28:11.535Z,14.96
2022-11-12T17:30:38.071Z,14.89
2022-11-12T17:33:04.574Z,14.96
2022-11-12T17:35:33.915Z,14.87
2022-11-12T17:38:00.446Z,14.87
2022-11-12T17:40:26.944Z,14.90
2022-11-12T17:42:53.376Z,14.94
2022-11-12T17:45:19.803Z,14.93
2022-11-12T17:47:46.418Z,14.89
2022-11-12T17:50:13.233Z,14.79
2022-11-12T17:52:41.093Z,14.89
2022-11-12T17:55:08.500Z,14.81
2022-11-12T17:57:35.124Z,14.98
2022-11-12T18:00:01.648Z,14.97
2022-11-12T18:02:28.216Z,15.05
2022-11-12T18:04:54.701Z,15.00
2022-11-12T18:07:21.237Z,15.00
2022-11-12T18:09:49.133Z,14.91
2022-11-12T18:12:15.746Z,14.87
2022-11-12T18:14:42.207Z,14.87
2022-11-12T18:17:08.675Z,14.90
2022-11-12T18:19:35.274Z,14.99
2022-11-12T18:22:01.786Z,14.96
2022-11-12T18:24:28.347Z,14.83
2022-11-12T18:26:56.216Z,14.92
2022-11-12T18:29:22.777Z,14.92
2022-11-12T18:31:49.345Z,14.95
2022-11-12T18:34:16.024Z,14.82
2022-11-12T18:36:42.547Z,14.79
2022-11-12T18:39:09.136Z,14.86
2022-11-12T18:41:35.756Z,14.86
2022-11-12T18:44:03.783Z,14.80
2022-11-12T18:46:30.446Z,14.79
2022-11-12T18:48:56.918Z,14.86
2022-11-12T18:51:23.461Z,14.85
2022-11-12T18:53:50.374Z,14.86
2022-11-12T18:56:19.235Z,14.83
2022-11-12T18:58:46.394Z,14.73
2022-11-12T19:01:16.402Z,14.79
2022-11-12T19:03:43.952Z,14.79
2022-11-12T19:06:11.677Z,14.81
2022-11-12T19:08:38.442Z,14.84
2022-11-12T19:11:07.350Z,14.87
2022-11-12T19:13:34.062Z,14.92
2022-11-12T19:16:03.855Z,14.96
2022-11-12T19:18:32.335Z,14.81
2022-11-12T19:21:03.094Z,14.87
2022-11-12T19:23:30.406Z,14.90
2022-11-12T19:25:59.967Z,14.86
2022-11-12T19:28:26.818Z,14.78
2022-11-12T19:30:53.836Z,14.84
2022-11-12T19:33:20.589Z,14.96
2022-11-12T19:35:48.550Z,14.93
2022-11-12T19:38:15.555Z,14.84
2022-11-12T19:40:42.448Z,14.80
2022-11-12T19:43:08.962Z,14.75
2022-11-12T19:45:35.497Z,14.79
2022-11-12T19:48:02.036Z,14.78
2022-11-12T19:50:28.626Z,14.77
2022-11-12T19:52:56.642Z,14.73
2022-11-12T19:55:23.519Z,14.67
2022-11-12T19:57:49.978Z,14.63
2022-11-12T20:00:17.378Z,14.65
2022-11-12T20:02:44.168Z,14.66
2022-11-12T20:05:10.743Z,14.74
2022-11-12T20:07:37.489Z,14.79
2022-11-12T20:10:06.200Z,14.82
2022-11-12T20:12:32.826Z,14.69
2022-11-12T20:14:59.444Z,14.85
2022-11-12T20:17:28.444Z,14.81
2022-11-12T20:19:59.963Z,14.87
2022-11-12T20:22:32.116Z,14.83
2022-11-12T20:24:59.420Z,14.77
2022-11-12T20:27:27.341Z,14.81
2022-11-12T20:29:54.280Z,14.69
2022-11-12T20:32:22.524Z,14.79
2022-11-12T20:34:49.047Z,14.79
2022-11-12T20:37:19.652Z,14.77
2022-11-12T20:39:46.256Z,14.77
2022-11-12T20:42:13.102Z,14.74
2022-11-12T20:44:40.998Z,14.83
2022-11-12T20:47:07.735Z,14.76
2022-11-12T20:49:51.377Z,14.73
2022-11-12T20:52:43.464Z,14.73
2022-11-12T20:55:10.402Z,14.75
2022-11-12T20:57:37.336Z,14.82
2022-11-12T21:00:07.388Z,14.72
2022-11-12T21:02:36.784Z,14.67
2022-11-12T21:05:04.324Z,14.62
2022-11-12T21:07:31.270Z,14.65
2022-11-12T21:09:57.832Z,14.65
2022-11-12T21:12:24.622Z,14.66
2022-11-12T21:14:52.455Z,14.57
2022-11-12T21:17:20.490Z,14.62
2022-11-12T21:19:47.347Z,14.43
2022-11-12T21:22:13.848Z,14.60
2022-11-12T21:24:40.413Z,14.55
2022-11-12T21:27:06.974Z,14.63
2022-11-12T21:29:33.767Z,14.60
2022-11-12T21:32:00.337Z,14.55
2022-11-12T21:34:33.770Z,14.61
2022-11-12T21:37:00.794Z,14.60
2022-11-12T21:39:27.361Z,14.61
2022-11-12T21:45:46.465Z,14.62
2022-11-12T21:48:13.670Z,14.60
2022-11-12T21:50:41.524Z,14.65
2022-11-12T21:53:10.677Z,14.57
2022-11-12T21:55:37.266Z,14.61
2022-11-12T21:58:03.954Z,14.45
2022-11-12T22:00:46.353Z,14.56
2022-11-12T22:03:12.881Z,14.61
2022-11-12T22:05:40.907Z,14.59
2022-11-12T22:08:07.524Z,14.51
2022-11-12T22:10:34.120Z,14.55
2022-11-12T22:13:27.873Z,14.44
2022-11-12T22:15:47.142Z,14.43
2022-11-12T22:18:13.823Z,14.34
2022-11-12T22:20:55.825Z,14.27
2022-11-12T22:23:22.421Z,14.11
2022-11-12T22:25:49.059Z,14.02
2022-11-12T22:28:15.618Z,13.91
2022-11-12T22:30:42.265Z,13.94
2022-11-12T22:33:10.888Z,13.85
2022-11-12T22:35:37.539Z,13.84
2022-11-12T22:38:05.927Z,13.79
2022-11-12T22:40:34.486Z,13.71
2022-11-12T22:43:01.176Z,13.69
2022-11-12T22:45:27.777Z,13.67
2022-11-12T22:47:54.453Z,13.59
2022-11-12T22:50:26.962Z,13.49
2022-11-12T22:52:55.144Z,13.54
2022-11-12T22:55:23.033Z,13.57
2022-11-12T22:57:49.547Z,13.51
2022-11-12T23:00:19.146Z,13.53
2022-11-12T23:02:47.653Z,13.52
2022-11-12T23:05:14.556Z,13.46
2022-11-12T23:07:43.129Z,13.49
2022-11-12T23:10:11.302Z,13.38
2022-11-12T23:12:57.402Z,13.38
2022-11-12T23:15:23.933Z,13.33
2022-11-12T23:17:50.544Z,13.38
2022-11-12T23:20:17.461Z,13.41
2022-11-12T23:22:43.930Z,13.32
2022-11-12T23:25:10.433Z,13.36
2022-11-12T23:27:39.934Z,13.29
2022-11-12T23:30:16.331Z,13.27
2022-11-12T23:32:42.909Z,13.33
2022-11-12T23:35:11.770Z,13.33
2022-11-12T23:37:38.473Z,13.26
2022-11-12T23:40:06.038Z,13.20
2022-11-12T23:42:32.562Z,13.17
2022-11-12T23:44:59.225Z,13.05
2022-11-12T23:47:27.129Z,12.98
2022-11-12T23:49:53.751Z,12.85
2022-11-12T23:52:20.201Z,12.74
2022-11-12T23:54:46.663Z,12.68
2022-11-12T23:57:13.192Z,12.68
2022-11-12T23:59:39.697Z,12.63
